Time;durP1;ratioP1;P1;durP2;ratioP2;P2;SDS_P1;SDS_P2;PMS_P1;PMS_P2;Temp;Humidity;BMP_temperature;BMP_pressure;BME280_temperature;BME280_humidity;BME280_pressure;Samples;Min_cycle;Max_cycle;Signal;HPM_P1;HPM_P2
2022/05/15 00:01:21;;;;;;;7.10;3.92;;;19.40;91.30;;;;;;4590355;19;19995;-28
2022/05/15 00:02:52;;;;;;;6.05;3.15;;;19.40;91.30;;;;;;4589624;19;20466;-28
2022/05/15 00:04:22;;;;;;;;;;;19.40;91.30;;;;;;4590427;19;20014;-28
2022/05/15 00:06:03;;;;;;;;;;;19.40;91.30;;;;;;4590933;19;19966;-28
2022/05/15 00:07:34;;;;;;;;;;;19.40;91.30;;;;;;4591115;19;19953;-29
2022/05/15 00:09:05;;;;;;;;;;;19.40;91.40;;;;;;4591723;19;19911;-28
2022/05/15 00:10:37;;;;;;;;;;;19.40;91.30;;;;;;4590981;19;20334;-28
2022/05/15 00:12:08;;;;;;;;;;;19.30;91.30;;;;;;4591044;19;19921;-28
2022/05/15 00:13:39;;;;;;;;;;;19.30;91.30;;;;;;4591040;19;20272;-28
2022/05/15 00:15:10;;;;;;;;;;;19.40;91.30;;;;;;4590962;19;19974;-28
2022/05/15 00:16:41;;;;;;;;;;;19.30;91.30;;;;;;4590408;19;20397;-28
2022/05/15 00:18:12;;;;;;;;;;;19.30;91.30;;;;;;4590613;19;20330;-28
2022/05/15 00:19:43;;;;;;;;;;;19.30;91.30;;;;;;4588513;19;19945;-29
2022/05/15 00:21:14;;;;;;;;;;;19.30;91.30;;;;;;4590053;19;20253;-28
2022/05/15 00:22:45;;;;;;;;;;;19.30;91.30;;;;;;4589765;19;19922;-29
2022/05/15 00:24:16;;;;;;;;;;;19.30;91.40;;;;;;4590473;19;20264;-27
2022/05/15 00:25:47;;;;;;;;;;;19.30;91.30;;;;;;4591618;19;19915;-28
2022/05/15 00:27:18;;;;;;;;;;;19.30;91.30;;;;;;4589445;19;19978;-29
2022/05/15 00:28:48;;;;;;;;;;;19.30;91.30;;;;;;4590362;19;19918;-28
2022/05/15 00:30:21;;;;;;;;;;;19.30;91.30;;;;;;4592521;19;19930;-29
2022/05/15 00:31:51;;;;;;;;;;;19.30;91.40;;;;;;4596040;19;19974;-27
2022/05/15 00:33:22;;;;;;;;;;;19.30;91.40;;;;;;4594839;19;20005;-29
2022/05/15 00:34:53;;;;;;;;;;;19.30;91.40;;;;;;4595542;19;20361;-28
2022/05/15 00:36:25;;;;;;;;;;;19.30;91.30;;;;;;4595399;19;19923;-28
2022/05/15 00:37:55;;;;;;;;;;;19.30;91.30;;;;;;4595131;19;20310;-27
2022/05/15 00:39:26;;;;;;;;;;;19.30;91.30;;;;;;4595587;19;19918;-28
2022/05/15 00:40:57;;;;;;;;;;;19.30;91.30;;;;;;4595909;19;20025;-28
2022/05/15 00:42:28;;;;;;;;;;;19.30;91.40;;;;;;4594494;19;19915;-28
2022/05/15 00:43:59;;;;;;;;;;;19.30;91.40;;;;;;4594803;19;20005;-28
2022/05/15 00:45:30;;;;;;;;;;;19.30;91.40;;;;;;4595327;19;19939;-28
2022/05/15 00:47:01;;;;;;;;;;;19.30;91.40;;;;;;4594799;19;20337;-28
2022/05/15 00:48:33;;;;;;;;;;;19.30;91.40;;;;;;4595954;19;19915;-27
2022/05/15 00:50:07;;;;;;;;;;;19.30;91.40;;;;;;4593842;19;20372;-28
2022/05/15 00:51:41;;;;;;;;;;;19.30;91.40;;;;;;4593798;19;19917;-28
2022/05/15 00:53:12;;;;;;;;;;;19.20;91.30;;;;;;4594988;19;19911;-28
2022/05/15 00:54:47;;;;;;;;;;;19.30;91.30;;;;;;4595152;19;20317;-29
2022/05/15 00:56:19;;;;;;;;;;;19.30;91.30;;;;;;4594943;19;19935;-28
2022/05/15 00:57:55;;;;;;;;;;;19.20;91.30;;;;;;4593737;19;19926;-28
2022/05/15 00:59:27;;;;;;;;;;;19.30;91.40;;;;;;4595180;19;19947;-28
2022/05/15 01:00:58;;;;;;;3.78;1.83;;;19.20;91.30;;;;;;4592870;19;20045;-28
2022/05/15 01:02:31;;;;;;;3.35;1.95;;;19.20;91.30;;;;;;4592824;19;20039;-28
2022/05/15 01:04:03;;;;;;;3.88;1.92;;;19.20;91.30;;;;;;4592689;19;20014;-28
2022/05/15 01:05:35;;;;;;;4.00;2.30;;;19.20;91.30;;;;;;4593551;19;20066;-27
2022/05/15 01:07:07;;;;;;;3.92;1.85;;;19.20;91.30;;;;;;4592704;19;20568;-29
2022/05/15 01:08:38;;;;;;;3.22;1.88;;;19.20;91.30;;;;;;4593734;19;20011;-29
2022/05/15 01:10:09;;;;;;;3.85;2.25;;;19.20;91.30;;;;;;4592963;19;20096;-28
2022/05/15 01:11:41;;;;;;;3.95;1.83;;;19.20;91.30;;;;;;4593051;19;20023;-29
2022/05/15 01:13:13;;;;;;;3.97;2.03;;;19.20;91.30;;;;;;4592465;19;20028;-28
2022/05/15 01:14:45;;;;;;;3.22;1.67;;;19.20;91.30;;;;;;4592607;19;20010;-29
2022/05/15 01:16:22;;;;;;;3.80;2.22;;;19.20;91.30;;;;;;4592836;19;20004;-28
2022/05/15 01:17:53;;;;;;;4.10;1.83;;;19.20;91.30;;;;;;4594098;19;20456;-28
2022/05/15 01:19:32;;;;;;;4.13;1.80;;;19.20;91.30;;;;;;4593303;19;20333;-28
2022/05/15 01:21:28;;;;;;;3.55;2.10;;;19.20;91.30;;;;;;4593506;19;20070;-28
2022/05/15 01:22:59;;;;;;;4.72;2.30;;;19.20;91.30;;;;;;4593705;19;20014;-28
2022/05/15 01:24:30;;;;;;;4.85;2.45;;;19.20;91.30;;;;;;4593644;19;20469;-29
2022/05/15 01:26:01;;;;;;;5.22;2.72;;;19.20;91.30;;;;;;4593230;19;20014;-29
2022/05/15 01:27:32;;;;;;;7.10;2.72;;;19.20;91.30;;;;;;4590957;19;20365;-28
2022/05/15 01:29:04;;;;;;;5.10;2.63;;;19.20;91.30;;;;;;4591957;19;20007;-29
2022/05/15 01:30:38;;;;;;;8.18;3.15;;;19.20;91.30;;;;;;4591196;19;20162;-30
2022/05/15 01:32:09;;;;;;;6.28;2.78;;;19.20;91.30;;;;;;4591505;19;20011;-28
2022/05/15 01:33:40;;;;;;;5.13;2.75;;;19.20;91.30;;;;;;4592341;19;20069;-30
2022/05/15 01:35:11;;;;;;;5.60;2.85;;;19.20;91.20;;;;;;4592721;19;20011;-28
2022/05/15 01:36:43;;;;;;;5.18;2.80;;;19.20;91.30;;;;;;4592109;19;20080;-28
2022/05/15 01:38:14;;;;;;;4.50;2.30;;;19.20;91.20;;;;;;4592641;19;20014;-28
2022/05/15 01:39:45;;;;;;;6.60;2.65;;;19.20;91.20;;;;;;4593226;19;20018;-28
2022/05/15 01:41:16;;;;;;;6.30;2.70;;;19.20;91.20;;;;;;4595339;19;20337;-28
2022/05/15 01:42:47;;;;;;;4.28;2.15;;;19.30;91.20;;;;;;4591015;19;20013;-28
2022/05/15 01:44:18;;;;;;;4.53;2.25;;;19.30;91.10;;;;;;4592530;19;20019;-28
2022/05/15 01:45:49;;;;;;;4.22;2.17;;;19.30;91.10;;;;;;4593331;19;20472;-28
2022/05/15 01:47:20;;;;;;;3.78;1.95;;;19.40;91.00;;;;;;4593365;19;20006;-29
2022/05/15 01:48:52;;;;;;;3.75;2.05;;;19.40;91.00;;;;;;4593343;19;20006;-28
2022/05/15 01:50:23;;;;;;;;;;;19.40;91.00;;;;;;4594169;19;20007;-28
2022/05/15 01:51:54;;;;;;;5.05;2.35;;;19.40;91.00;;;;;;4592399;19;19966;-28
2022/05/15 01:53:24;;;;;;;4.13;2.15;;;19.40;90.90;;;;;;4591850;19;20010;-28
2022/05/15 01:54:56;;;;;;;5.82;2.10;;;19.40;90.90;;;;;;4592359;19;20355;-28
2022/05/15 01:56:27;;;;;;;4.82;2.10;;;19.40;90.90;;;;;;4592661;19;20011;-29
2022/05/15 01:57:58;;;;;;;6.53;1.98;;;19.40;90.90;;;;;;4591630;19;20015;-29
2022/05/15 01:59:29;;;;;;;4.70;1.98;;;19.40;90.90;;;;;;4592496;19;20472;-28
2022/05/15 02:01:00;;;;;;;4.25;1.80;;;19.40;90.90;;;;;;4592549;19;20074;-28
2022/05/15 02:02:31;;;;;;;4.40;2.22;;;19.40;90.90;;;;;;4593208;19;20026;-28
2022/05/15 02:04:03;;;;;;;4.82;1.92;;;19.40;90.90;;;;;;4590131;19;20010;-28
2022/05/15 02:05:34;;;;;;;4.13;2.15;;;19.40;90.90;;;;;;4591067;19;20014;-28
2022/05/15 02:07:05;;;;;;;3.25;1.75;;;19.40;90.90;;;;;;4592248;19;20544;-29
2022/05/15 02:08:36;;;;;;;4.50;1.92;;;19.40;90.90;;;;;;4592977;19;20014;-27
2022/05/15 02:10:08;;;;;;;4.25;2.28;;;19.40;90.90;;;;;;4591956;19;20333;-28
2022/05/15 02:11:39;;;;;;;3.80;2.08;;;19.40;90.90;;;;;;4591263;19;20006;-28
2022/05/15 02:13:11;;;;;;;5.35;2.58;;;19.40;90.90;;;;;;4591335;19;20017;-29
2022/05/15 02:14:42;;;;;;;4.35;2.42;;;19.40;90.90;;;;;;4591552;19;20011;-29
2022/05/15 02:16:12;;;;;;;4.97;2.38;;;19.40;90.80;;;;;;4592461;19;20019;-28
2022/05/15 02:17:43;;;;;;;4.93;2.35;;;19.50;90.80;;;;;;4591172;19;20078;-28
2022/05/15 02:19:16;;;;;;;6.53;2.60;;;19.50;90.70;;;;;;4593964;19;20007;-28
2022/05/15 02:20:47;;;;;;;3.95;2.22;;;19.50;90.70;;;;;;4592306;19;20027;-29
2022/05/15 02:22:18;;;;;;;5.80;2.08;;;19.60;90.70;;;;;;4592769;19;20014;-28
2022/05/15 02:23:49;;;;;;;4.22;1.83;;;19.60;90.70;;;;;;4592248;19;20066;-29
2022/05/15 02:25:20;;;;;;;5.63;2.60;;;19.60;90.60;;;;;;4592610;19;20346;-28
2022/05/15 02:26:51;;;;;;;5.65;2.25;;;19.60;90.60;;;;;;4591565;19;20031;-29
2022/05/15 02:28:22;;;;;;;3.17;1.80;;;19.60;90.60;;;;;;4591780;19;20018;-29
2022/05/15 02:29:53;;;;;;;3.97;1.75;;;19.60;90.60;;;;;;4592161;19;20066;-28
2022/05/15 02:31:24;;;;;;;4.18;2.10;;;19.60;90.60;;;;;;4592630;19;20006;-28
2022/05/15 02:32:55;;;;;;;4.03;1.83;;;19.60;90.60;;;;;;4592392;19;20070;-29
2022/05/15 02:34:26;;;;;;;4.80;1.73;;;19.60;90.60;;;;;;4591077;19;20014;-29
2022/05/15 02:35:58;;;;;;;4.38;1.80;;;19.60;90.60;;;;;;4592398;19;20010;-28
2022/05/15 02:37:29;;;;;;;4.00;1.80;;;19.60;90.60;;;;;;4591446;19;20389;-28
2022/05/15 02:39:00;;;;;;;4.28;1.60;;;19.60;90.60;;;;;;4592554;19;20011;-28
2022/05/15 02:40:31;;;;;;;3.65;1.33;;;19.60;90.60;;;;;;4590603;19;20009;-29
2022/05/15 02:42:02;;;;;;;3.55;1.60;;;19.50;90.60;;;;;;4591622;19;20356;-28
2022/05/15 02:43:33;;;;;;;3.17;1.38;;;19.50;90.60;;;;;;4591442;19;20074;-28
2022/05/15 02:45:05;;;;;;;2.75;1.55;;;19.50;90.60;;;;;;4591379;19;20056;-28
2022/05/15 02:46:36;;;;;;;3.90;1.70;;;19.50;90.60;;;;;;4590755;19;20010;-28
2022/05/15 02:51:03;;;;;;;4.45;1.75;;;19.50;90.60;;;;;;4590614;19;20018;-29
2022/05/15 02:51:50;;;;;;;4.10;1.83;;;19.50;90.60;;;;;;4590056;19;20428;-29
2022/05/15 02:53:22;;;;;;;3.90;1.73;;;19.50;90.60;;;;;;4590450;19;20014;-28
2022/05/15 02:54:53;;;;;;;3.35;1.85;;;19.50;90.60;;;;;;4591468;19;20480;-27
2022/05/15 02:56:26;;;;;;;3.05;1.60;;;19.40;90.60;;;;;;4592138;19;20006;-27
2022/05/15 02:57:57;;;;;;;3.92;1.60;;;19.40;90.60;;;;;;4589234;19;20388;-28
2022/05/15 02:59:28;;;;;;;3.90;2.25;;;19.50;90.60;;;;;;4591085;19;20031;-28
2022/05/15 03:00:59;;;;;;;4.60;1.52;;;19.40;90.60;;;;;;4591802;19;20017;-29
2022/05/15 03:02:30;;;;;;;3.65;1.98;;;19.40;90.60;;;;;;4591003;19;19998;-28
2022/05/15 03:04:01;;;;;;;4.18;1.70;;;19.40;90.60;;;;;;4591323;19;20027;-28
2022/05/15 03:05:32;;;;;;;3.10;1.40;;;19.40;90.60;;;;;;4591331;19;20010;-28
2022/05/15 03:07:05;;;;;;;4.25;2.03;;;19.40;90.60;;;;;;4591696;19;20349;-29
2022/05/15 03:08:38;;;;;;;3.47;2.00;;;19.40;90.60;;;;;;4591491;19;20078;-28
2022/05/15 03:10:09;;;;;;;4.75;2.10;;;19.40;90.60;;;;;;4591192;19;20105;-29
2022/05/15 03:11:40;;;;;;;3.60;1.80;;;19.40;90.60;;;;;;4590239;19;20116;-29
2022/05/15 03:13:11;;;;;;;4.43;1.77;;;19.40;90.60;;;;;;4590477;19;20006;-29
2022/05/15 03:14:43;;;;;;;3.22;1.60;;;19.40;90.60;;;;;;4591328;19;20077;-28
2022/05/15 03:16:15;;;;;;;3.92;2.17;;;19.40;90.60;;;;;;4591006;19;20040;-29
2022/05/15 03:17:46;;;;;;;3.90;1.58;;;19.40;90.60;;;;;;4588947;19;20015;-28
2022/05/15 03:19:17;;;;;;;4.18;2.17;;;19.40;90.60;;;;;;4591306;19;20006;-28
2022/05/15 03:20:48;;;;;;;3.90;1.75;;;19.30;90.60;;;;;;4591342;19;20074;-28
2022/05/15 03:22:19;;;;;;;3.63;1.70;;;19.40;90.60;;;;;;4590855;19;20422;-28
2022/05/15 03:23:50;;;;;;;4.90;2.22;;;19.30;90.60;;;;;;4591326;19;20010;-29
2022/05/15 03:25:21;;;;;;;4.30;2.10;;;19.30;90.60;;;;;;4591599;19;20070;-28
2022/05/15 03:26:52;;;;;;;5.78;2.67;;;19.30;90.60;;;;;;4591352;19;20070;-29
2022/05/15 03:28:23;;;;;;;3.05;1.60;;;19.30;90.60;;;;;;4591031;19;20330;-28
2022/05/15 03:29:56;;;;;;;4.75;2.17;;;19.30;90.60;;;;;;4591081;19;20078;-28
2022/05/15 03:31:27;;;;;;;2.95;1.83;;;19.30;90.60;;;;;;4591413;19;20031;-27
2022/05/15 03:32:58;;;;;;;5.05;1.42;;;19.30;90.60;;;;;;4590093;19;20081;-28
2022/05/15 03:34:29;;;;;;;3.47;1.52;;;19.30;90.50;;;;;;4591457;19;20345;-28
2022/05/15 03:36:02;;;;;;;3.42;1.40;;;19.30;90.50;;;;;;4593274;19;20353;-28
2022/05/15 03:37:33;;;;;;;4.35;1.83;;;19.30;90.50;;;;;;4590300;19;20014;-27
2022/05/15 03:39:06;;;;;;;3.05;1.63;;;19.30;90.50;;;;;;4592406;19;20542;-28
2022/05/15 03:40:37;;;;;;;3.08;1.80;;;19.30;90.50;;;;;;4589619;19;20012;-27
2022/05/15 03:42:08;;;;;;;4.93;1.80;;;19.30;90.60;;;;;;4590636;19;20072;-29
2022/05/15 03:43:39;;;;;;;4.03;1.70;;;19.30;90.50;;;;;;4590064;19;20360;-28
2022/05/15 03:45:11;;;;;;;4.13;1.90;;;19.30;90.60;;;;;;4591020;19;20039;-28
2022/05/15 03:46:43;;;;;;;3.97;1.70;;;19.30;90.50;;;;;;4592279;19;20468;-29
2022/05/15 03:48:14;;;;;;;4.00;1.67;;;19.30;90.60;;;;;;4590591;19;20342;-29
2022/05/15 03:49:45;;;;;;;4.47;2.00;;;19.30;90.50;;;;;;4591957;19;20031;-28
2022/05/15 03:51:17;;;;;;;4.38;1.80;;;19.30;90.50;;;;;;4592286;19;20018;-28
2022/05/15 03:52:47;;;;;;;5.47;1.85;;;19.30;90.50;;;;;;4590738;19;20360;-28
2022/05/15 03:54:18;;;;;;;3.33;1.65;;;19.30;90.60;;;;;;4589632;19;20006;-28
2022/05/15 03:55:51;;;;;;;3.95;2.00;;;19.30;90.60;;;;;;4589528;19;20034;-29
2022/05/15 03:57:22;;;;;;;5.43;2.13;;;19.30;90.60;;;;;;4590062;19;20010;-28
2022/05/15 03:58:53;;;;;;;3.55;1.80;;;19.30;90.60;;;;;;4591066;19;20330;-29
2022/05/15 04:00:25;;;;;;;3.33;1.58;;;19.30;90.60;;;;;;4591961;19;20095;-28
2022/05/15 04:01:56;;;;;;;3.58;1.80;;;19.30;90.60;;;;;;4588637;19;20025;-28
2022/05/15 04:03:28;;;;;;;3.38;1.23;;;19.30;90.60;;;;;;4590223;19;20552;-28
2022/05/15 04:04:59;;;;;;;3.25;1.58;;;19.40;90.60;;;;;;4589781;19;20022;-29
2022/05/15 04:06:30;;;;;;;3.08;1.70;;;19.40;90.60;;;;;;4588956;19;20011;-29
2022/05/15 04:08:02;;;;;;;1.80;1.05;;;19.40;90.50;;;;;;4590072;19;20036;-29
2022/05/15 04:09:33;;;;;;;2.15;1.30;;;19.40;90.50;;;;;;4589044;19;20465;-28
2022/05/15 04:11:04;;;;;;;5.07;1.75;;;19.40;90.50;;;;;;4590129;19;20034;-28
2022/05/15 04:12:35;;;;;;;5.40;2.25;;;19.40;90.50;;;;;;4589419;19;20515;-29
2022/05/15 04:14:06;;;;;;;3.38;1.50;;;19.40;90.60;;;;;;4588420;19;20018;-28
2022/05/15 04:15:38;;;;;;;3.83;1.52;;;19.40;90.60;;;;;;4588392;19;20022;-28
2022/05/15 04:17:09;;;;;;;3.42;1.65;;;19.40;90.60;;;;;;4587894;19;20038;-29
2022/05/15 04:18:40;;;;;;;4.18;1.77;;;19.50;90.60;;;;;;4589560;19;20014;-28
2022/05/15 04:20:12;;;;;;;4.22;2.00;;;19.50;90.60;;;;;;4589779;19;20330;-27
2022/05/15 04:21:44;;;;;;;3.45;1.52;;;19.50;90.60;;;;;;4588619;19;20029;-28
2022/05/15 04:23:15;;;;;;;2.25;1.50;;;19.40;90.60;;;;;;4588774;19;20026;-28
2022/05/15 04:24:45;;;;;;;3.50;1.70;;;19.40;90.60;;;;;;4589840;19;20334;-30
2022/05/15 04:26:17;;;;;;;3.42;1.48;;;19.40;90.60;;;;;;4590096;19;20013;-29
2022/05/15 04:27:49;;;;;;;3.50;1.77;;;19.40;90.60;;;;;;4589378;19;20598;-28
2022/05/15 04:29:20;;;;;;;3.22;1.58;;;19.40;90.60;;;;;;4589801;19;20007;-29
2022/05/15 04:30:51;;;;;;;4.68;1.77;;;19.40;90.90;;;;;;4588714;19;20472;-30
2022/05/15 04:32:22;;;;;;;3.72;1.50;;;19.40;90.70;;;;;;4588830;19;20492;-30
2022/05/15 04:33:53;;;;;;;3.50;1.83;;;19.50;90.70;;;;;;4589318;19;20010;-28
2022/05/15 04:35:24;;;;;;;3.80;1.67;;;19.50;90.70;;;;;;4588688;19;20007;-28
2022/05/15 04:36:55;;;;;;;2.75;1.30;;;19.40;90.70;;;;;;4586407;19;20038;-30
2022/05/15 04:38:26;;;;;;;2.50;1.17;;;19.40;90.70;;;;;;4587524;19;20468;-28
2022/05/15 04:39:58;;;;;;;2.80;1.52;;;19.40;90.70;;;;;;4588578;19;20010;-28
2022/05/15 04:41:29;;;;;;;3.30;1.48;;;19.40;90.80;;;;;;4587169;19;20011;-29
2022/05/15 04:43:00;;;;;;;3.25;1.40;;;19.40;90.80;;;;;;4587031;19;20006;-29
2022/05/15 04:44:31;;;;;;;2.67;1.35;;;19.40;90.80;;;;;;4587262;19;20448;-28
2022/05/15 04:46:07;;;;;;;2.75;1.05;;;19.40;90.80;;;;;;4587053;19;20075;-28
2022/05/15 04:47:38;;;;;;;3.72;1.60;;;19.40;90.90;;;;;;4586688;19;20415;-29
2022/05/15 04:49:09;;;;;;;2.90;1.25;;;19.40;90.80;;;;;;4585810;19;20015;-29
2022/05/15 04:50:40;;;;;;;3.72;1.38;;;19.50;90.90;;;;;;4586916;19;20014;-28
2022/05/15 04:52:11;;;;;;;3.33;1.50;;;19.50;90.90;;;;;;4585787;19;20025;-28
2022/05/15 04:53:42;;;;;;;3.33;1.40;;;19.50;90.90;;;;;;4587193;19;20072;-28
2022/05/15 04:55:13;;;;;;;1.85;1.00;;;19.50;90.90;;;;;;4586766;19;20560;-28
2022/05/15 04:56:44;;;;;;;2.05;1.05;;;19.50;91.00;;;;;;4587349;19;20010;-29
2022/05/15 04:58:15;;;;;;;2.53;1.20;;;19.50;91.00;;;;;;4587184;19;20103;-29
2022/05/15 04:59:46;;;;;;;2.63;1.00;;;19.50;91.00;;;;;;4587212;19;20551;-29
2022/05/15 05:01:18;;;;;;;2.50;0.80;;;19.50;91.00;;;;;;4587253;19;20006;-29
2022/05/15 05:02:49;;;;;;;4.50;1.88;;;19.50;90.90;;;;;;4587529;19;20017;-29
2022/05/15 05:04:21;;;;;;;2.38;0.90;;;19.60;90.90;;;;;;4586314;19;20488;-28
2022/05/15 05:05:52;;;;;;;2.72;0.90;;;19.60;90.90;;;;;;4586734;19;20019;-28
2022/05/15 05:07:23;;;;;;;3.35;0.98;;;19.70;90.90;;;;;;4587200;19;20018;-29
2022/05/15 05:08:55;;;;;;;1.80;0.90;;;19.70;90.90;;;;;;4586689;19;20049;-29
2022/05/15 05:10:26;;;;;;;;;;;19.70;90.80;;;;;;4587752;19;20019;-27
2022/05/15 05:11:57;;;;;;;2.17;1.02;;;19.80;90.90;;;;;;4587176;19;20356;-30
2022/05/15 05:13:29;;;;;;;2.05;0.95;;;19.80;90.90;;;;;;4587213;19;20011;-29
2022/05/15 05:15:00;;;;;;;3.72;1.23;;;19.80;90.90;;;;;;4587990;19;20026;-28
2022/05/15 05:16:33;;;;;;;4.45;0.98;;;19.80;91.00;;;;;;4587658;19;20010;-29
2022/05/15 05:18:04;;;;;;;2.38;1.25;;;19.70;90.90;;;;;;4590356;19;20461;-30
2022/05/15 05:19:35;;;;;;;2.47;0.90;;;19.80;90.90;;;;;;4594259;19;20026;-30
2022/05/15 05:21:06;;;;;;;2.15;0.93;;;19.70;90.90;;;;;;4593113;19;20014;-28
2022/05/15 05:22:37;;;;;;;1.83;0.70;;;19.70;90.90;;;;;;4593039;19;20036;-28
2022/05/15 05:24:08;;;;;;;2.25;0.98;;;19.70;90.90;;;;;;4591452;19;20010;-27
2022/05/15 05:25:39;;;;;;;1.70;0.90;;;19.70;91.00;;;;;;4593495;19;20544;-28
2022/05/15 05:27:10;;;;;;;1.45;0.70;;;19.70;91.00;;;;;;4592454;19;20046;-29
2022/05/15 05:28:41;;;;;;;2.03;1.17;;;19.70;91.00;;;;;;4592702;19;20074;-28
2022/05/15 05:30:19;;;;;;;3.22;1.10;;;19.70;91.00;;;;;;4593133;19;20007;-28
2022/05/15 05:31:50;;;;;;;2.45;0.93;;;19.70;91.00;;;;;;4593551;19;20404;-28
2022/05/15 05:33:21;;;;;;;2.17;1.10;;;19.70;91.00;;;;;;4592617;19;20019;-28
2022/05/15 05:34:53;;;;;;;2.42;0.70;;;19.70;91.10;;;;;;4592696;19;20017;-28
2022/05/15 05:36:24;;;;;;;2.05;0.60;;;19.60;91.10;;;;;;4594113;19;20022;-29
2022/05/15 05:37:55;;;;;;;1.25;0.70;;;19.70;91.10;;;;;;4589722;19;20011;-30
2022/05/15 05:39:29;;;;;;;1.77;0.80;;;19.70;91.00;;;;;;4590422;19;20027;-30
2022/05/15 05:41:01;;;;;;;3.63;1.17;;;19.70;91.10;;;;;;4593332;19;20464;-28
2022/05/15 05:42:32;;;;;;;2.08;0.88;;;19.70;91.10;;;;;;4593266;19;20509;-30
2022/05/15 05:44:03;;;;;;;2.85;1.13;;;19.70;91.00;;;;;;4593157;19;20018;-28
2022/05/15 05:45:49;;;;;;;2.33;0.88;;;19.70;91.00;;;;;;4592481;19;20010;-28
2022/05/15 05:47:27;;;;;;;4.07;1.25;;;19.70;91.00;;;;;;4592449;19;20097;-28
2022/05/15 05:48:57;;;;;;;3.58;1.20;;;19.80;92.40;;;;;;4592420;19;20014;-28
2022/05/15 05:50:29;;;;;;;1.33;0.73;;;19.80;91.10;;;;;;4591657;19;20011;-28
2022/05/15 05:52:00;;;;;;;1.50;0.80;;;19.80;91.80;;;;;;4593039;19;20023;-30
2022/05/15 05:53:31;;;;;;;1.38;0.60;;;19.80;90.90;;;;;;4593299;19;20007;-28
2022/05/15 05:55:03;;;;;;;1.95;0.68;;;19.80;90.80;;;;;;4592444;19;20042;-29
2022/05/15 05:56:36;;;;;;;2.10;0.70;;;19.80;90.90;;;;;;4592465;19;20010;-28
2022/05/15 05:58:07;;;;;;;2.03;0.90;;;19.70;90.90;;;;;;4589279;19;20011;-28
2022/05/15 05:59:38;;;;;;;1.73;0.80;;;19.80;90.90;;;;;;4591675;19;20017;-29
2022/05/15 06:01:09;;;;;;;2.05;0.70;;;19.70;90.90;;;;;;4590289;19;21912;-28
2022/05/15 06:02:40;;;;;;;2.00;0.70;;;19.70;90.90;;;;;;4590253;19;20011;-28
2022/05/15 06:06:01;;;;;;;1.60;0.60;;;19.70;90.90;;;;;;4589903;19;20024;-27
2022/05/15 06:07:35;;;;;;;1.83;0.65;;;19.70;90.90;;;;;;4590894;19;20354;-28
2022/05/15 06:09:06;;;;;;;1.48;0.70;;;19.70;91.00;;;;;;4593050;19;20039;-28
2022/05/15 06:10:37;;;;;;;1.40;0.70;;;19.70;90.90;;;;;;4593034;19;20365;-28
2022/05/15 06:12:09;;;;;;;2.15;0.80;;;19.70;90.90;;;;;;4592881;19;20014;-27
2022/05/15 06:13:40;;;;;;;2.53;0.73;;;19.70;91.20;;;;;;4589420;19;20050;-28
2022/05/15 06:15:12;;;;;;;2.58;0.95;;;19.70;90.90;;;;;;4591229;19;20009;-29
2022/05/15 06:16:44;;;;;;;2.33;0.80;;;19.70;90.90;;;;;;4591798;19;20017;-28
2022/05/15 06:18:15;;;;;;;1.70;0.60;;;19.70;90.90;;;;;;4591986;19;20014;-29
2022/05/15 06:19:46;;;;;;;1.73;0.60;;;19.70;90.90;;;;;;4592481;19;20397;-28
2022/05/15 06:21:17;;;;;;;1.27;0.60;;;19.70;91.00;;;;;;4593325;19;20013;-29
2022/05/15 06:22:49;;;;;;;3.08;0.93;;;19.80;90.80;;;;;;4592773;19;20441;-27
2022/05/15 06:24:25;;;;;;;1.10;0.50;;;19.80;90.80;;;;;;4591565;19;20074;-28
2022/05/15 06:25:56;;;;;;;0.88;0.52;;;19.90;90.80;;;;;;4591740;19;20016;-27
2022/05/15 06:27:27;;;;;;;1.38;0.50;;;19.90;90.50;;;;;;4591798;19;20006;-29
2022/05/15 06:28:58;;;;;;;2.03;0.68;;;19.90;90.60;;;;;;4589676;19;20018;-29
2022/05/15 06:30:30;;;;;;;2.28;0.90;;;19.90;90.80;;;;;;4591545;19;20342;-30
2022/05/15 06:32:01;;;;;;;2.92;1.08;;;20.00;90.50;;;;;;4590731;19;20015;-29
2022/05/15 06:33:33;;;;;;;;;;;20.10;90.30;;;;;;4589177;19;20010;-28
2022/05/15 06:35:04;;;;;;;2.75;0.90;;;19.90;90.30;;;;;;4589988;19;19929;-30
2022/05/15 06:36:36;;;;;;;1.67;0.70;;;19.80;90.50;;;;;;4593332;19;20066;-29
2022/05/15 06:38:07;;;;;;;2.50;1.02;;;19.60;90.50;;;;;;4591015;19;20011;-30
2022/05/15 06:39:38;;;;;;;3.15;0.77;;;19.50;90.60;;;;;;4591129;19;20456;-28
2022/05/15 06:41:10;;;;;;;3.35;0.90;;;19.40;90.60;;;;;;4590103;19;20496;-28
2022/05/15 06:42:45;;;;;;;3.25;1.10;;;19.40;91.30;;;;;;4589591;19;20370;-28
2022/05/15 06:44:17;;;;;;;2.10;0.80;;;17.90;91.10;;;;;;4590467;19;20030;-28
2022/05/15 06:45:48;;;;;;;;;;;16.90;92.40;;;;;;4590228;19;20754;-28
2022/05/15 06:47:19;;;;;;;;;;;16.20;93.60;;;;;;4592194;19;19922;-29
2022/05/15 06:48:50;;;;;;;;;;;15.90;94.20;;;;;;4592407;19;19922;-27
2022/05/15 06:50:21;;;;;;;;;;;15.60;94.70;;;;;;4590714;19;20032;-27
2022/05/15 06:51:52;;;;;;;;;;;15.50;94.90;;;;;;4591462;19;19946;-27
2022/05/15 06:53:23;;;;;;;;;;;15.40;95.20;;;;;;4592276;19;19922;-28
2022/05/15 06:54:55;;;;;;;;;;;15.30;95.20;;;;;;4590679;19;19939;-28
2022/05/15 06:58:15;;;;;;;;;;;15.20;95.00;;;;;;4592817;19;19918;-28
2022/05/15 06:59:46;;;;;;;;;;;15.20;95.00;;;;;;4592215;19;19978;-28
2022/05/15 07:01:17;;;;;;;;;;;15.20;95.10;;;;;;4592344;19;19919;-28
2022/05/15 07:02:48;;;;;;;;;;;15.20;94.70;;;;;;4592779;19;19929;-28
2022/05/15 07:04:19;;;;;;;;;;;15.20;94.60;;;;;;4592417;19;19943;-28
2022/05/15 07:05:50;;;;;;;;;;;15.20;94.50;;;;;;4592017;19;20333;-28
2022/05/15 07:07:21;;;;;;;;;;;15.20;94.40;;;;;;4592823;19;19915;-28
2022/05/15 07:08:52;;;;;;;;;;;15.20;94.30;;;;;;4591439;19;19926;-28
2022/05/15 07:10:25;;;;;;;;;;;15.20;94.50;;;;;;4592955;19;20337;-28
2022/05/15 07:11:55;;;;;;;;;;;15.10;94.80;;;;;;4592728;19;19918;-28
2022/05/15 07:13:27;;;;;;;;;;;15.20;95.10;;;;;;4592355;19;20238;-28
2022/05/15 07:14:57;;;;;;;;;;;15.10;95.00;;;;;;4589128;19;19943;-28
2022/05/15 07:16:28;;;;;;;;;;;15.10;95.00;;;;;;4590944;19;19929;-28
2022/05/15 07:17:59;;;;;;;;;;;15.10;94.50;;;;;;4590867;19;19919;-28
2022/05/15 07:19:30;;;;;;;;;;;15.10;94.80;;;;;;4591896;19;19937;-27
2022/05/15 07:21:02;;;;;;;;;;;15.10;95.00;;;;;;4591844;19;19918;-28
2022/05/15 07:22:33;;;;;;;;;;;15.10;95.10;;;;;;4591092;19;19914;-28
2022/05/15 07:24:04;;;;;;;;;;;15.10;94.80;;;;;;4590906;19;19922;-28
2022/05/15 07:25:35;;;;;;;;;;;15.10;94.40;;;;;;4591417;19;20003;-28
2022/05/15 07:27:07;;;;;;;;;;;15.10;94.60;;;;;;4592143;19;19919;-27
2022/05/15 07:28:38;;;;;;;;;;;15.10;95.20;;;;;;4591675;19;19918;-27
2022/05/15 07:30:09;;;;;;;;;;;15.10;94.90;;;;;;4591241;19;19919;-29
2022/05/15 07:31:40;;;;;;;;;;;15.10;95.10;;;;;;4591113;19;19933;-28
2022/05/15 07:33:11;;;;;;;;;;;15.10;95.10;;;;;;4592124;19;19962;-28
2022/05/15 07:34:42;;;;;;;;;;;15.10;95.10;;;;;;4592291;19;19918;-28
2022/05/15 07:36:13;;;;;;;;;;;15.10;94.90;;;;;;4591762;19;19911;-28
2022/05/15 07:37:44;;;;;;;;;;;15.10;94.70;;;;;;4589968;19;19957;-28
2022/05/15 07:39:15;;;;;;;;;;;15.10;94.50;;;;;;4591791;19;19943;-28
2022/05/15 07:40:46;;;;;;;;;;;15.10;94.70;;;;;;4588916;19;20385;-27
2022/05/15 07:42:16;;;;;;;;;;;15.10;94.60;;;;;;4591410;19;19922;-28
2022/05/15 07:43:48;;;;;;;;;;;15.10;94.60;;;;;;4590809;19;19970;-27
2022/05/15 07:45:19;;;;;;;;;;;15.10;94.30;;;;;;4590844;19;20282;-28
2022/05/15 07:46:50;;;;;;;;;;;15.10;94.40;;;;;;4592347;19;19915;-29
2022/05/15 07:48:20;;;;;;;;;;;15.10;94.20;;;;;;4589840;19;19922;-28
2022/05/15 07:49:51;;;;;;;;;;;15.10;94.30;;;;;;4592575;19;19919;-28
2022/05/15 07:51:22;;;;;;;;;;;15.10;94.30;;;;;;4591119;19;19929;-28
2022/05/15 07:52:53;;;;;;;;;;;15.10;94.50;;;;;;4589850;19;20280;-28
2022/05/15 07:54:24;;;;;;;;;;;15.10;94.20;;;;;;4592403;19;19931;-28
2022/05/15 07:55:55;;;;;;;;;;;15.20;94.30;;;;;;4591955;19;19933;-27
2022/05/15 07:57:26;;;;;;;;;;;15.10;94.10;;;;;;4590979;19;19915;-28
2022/05/15 07:58:57;;;;;;;;;;;15.20;94.00;;;;;;4591310;19;19943;-27
2022/05/15 08:00:28;;;;;;;;;;;15.20;94.10;;;;;;4591245;19;19974;-27
2022/05/15 08:01:59;;;;;;;;;;;15.10;93.70;;;;;;4592266;19;19919;-28
2022/05/15 08:03:33;;;;;;;;;;;15.20;93.50;;;;;;4590929;19;19918;-28
2022/05/15 08:08:54;;;;;;;;;;;15.20;94.10;;;;;;4592367;19;19982;-27
2022/05/15 08:10:25;;;;;;;;;;;15.20;93.80;;;;;;4593624;19;20271;-28
2022/05/15 08:11:56;;;;;;;;;;;15.20;94.00;;;;;;4593420;19;19915;-27
2022/05/15 08:13:29;;;;;;;;;;;15.20;93.90;;;;;;4592414;19;20030;-28
2022/05/15 08:15:04;;;;;;;;;;;15.20;93.60;;;;;;4593435;19;19918;-27
2022/05/15 08:16:35;;;;;;;;;;;15.30;93.90;;;;;;4592289;19;19919;-29
2022/05/15 08:23:37;;;;;;;;;;;15.30;93.40;;;;;;4591010;19;19919;-28
2022/05/15 08:25:08;;;;;;;;;;;15.30;92.70;;;;;;4591514;19;20340;-28
2022/05/15 08:26:39;;;;;;;;;;;15.30;92.70;;;;;;4590768;19;19948;-27
2022/05/15 08:28:10;;;;;;;;;;;15.30;93.10;;;;;;4590574;19;19914;-30